Time;durP1;ratioP1;P1;durP2;ratioP2;P2;SDS_P1;SDS_P2;PMS_P1;PMS_P2;Temp;Humidity;BMP_temperature;BMP_pressure;BME280_temperature;BME280_humidity;BME280_pressure;Samples;Min_cycle;Max_cycle;Signal;HPM_P1;HPM_P2
2023/02/11 00:02:32;;;;;;;0.00;0.00;;;;;;;8.51;94.82;102369.94;6143597;23;20095;-74
2023/02/11 00:05:01;;;;;;;0.10;0.10;;;;;;;8.50;93.94;102385.47;6166071;23;20052;-75
2023/02/11 00:07:31;;;;;;;0.00;0.00;;;;;;;8.60;93.51;102373.31;6163681;23;20000;-72
2023/02/11 00:10:01;;;;;;;0.00;0.00;;;;;;;8.49;93.37;102351.06;6163092;23;20008;-76
2023/02/11 00:12:27;;;;;;;0.00;0.00;;;;;;;8.54;92.88;102359.47;6191993;23;20051;-75
2023/02/11 00:14:53;;;;;;;0.00;0.00;;;;;;;8.68;93.05;102371.25;6189120;23;20000;-72
2023/02/11 00:17:21;;;;;;;0.00;0.00;;;;;;;8.65;92.66;102359.91;6165139;23;20336;-75
2023/02/11 00:20:03;;;;;;;0.00;0.00;;;;;;;8.66;92.21;102369.75;6188337;23;20025;-73
2023/02/11 00:22:31;;;;;;;0.00;0.00;;;;;;;8.56;92.09;102346.47;6164740;23;20001;-78
2023/02/11 00:24:57;;;;;;;0.00;0.00;;;;;;;8.74;91.82;102375.03;6159745;23;20005;-74
2023/02/11 00:27:22;;;;;;;0.00;0.00;;;;;;;8.65;91.50;102363.47;6192100;23;20550;-74
2023/02/11 00:29:48;;;;;;;0.00;0.00;;;;;;;8.59;92.05;102345.22;6163404;23;19998;-73
2023/02/11 00:32:14;;;;;;;0.00;0.00;;;;;;;8.79;90.92;102386.19;6161832;23;20009;-75
2023/02/11 00:34:39;;;;;;;0.00;0.00;;;;;;;8.75;90.81;102368.53;6163919;23;20324;-75
2023/02/11 00:37:05;;;;;;;0.00;0.00;;;;;;;8.62;91.01;102349.44;6161580;23;20064;-75
2023/02/11 00:39:31;;;;;;;0.00;0.00;;;;;;;8.56;90.68;102341.00;6164102;23;20008;-75
2023/02/11 00:41:57;;;;;;;0.00;0.00;;;;;;;8.56;91.38;102351.91;6140733;23;20005;-74
2023/02/11 00:44:23;;;;;;;0.00;0.00;;;;;;;8.53;91.28;102344.16;6161766;23;20439;-74
2023/02/11 00:46:48;;;;;;;0.00;0.00;;;;;;;8.66;91.33;102367.03;6190610;23;20032;-74
2023/02/11 00:49:20;;;;;;;0.08;0.08;;;;;;;8.65;91.36;102359.91;6161628;23;20036;-74
2023/02/11 00:51:55;;;;;;;0.00;0.00;;;;;;;8.61;91.08;102353.19;6168527;23;20018;-75
2023/02/11 00:54:37;;;;;;;;;;;;;;;8.74;90.41;102375.88;6108283;23;20021;-74
2023/02/11 00:57:02;;;;;;;0.00;0.00;;;;;;;8.63;91.11;102364.72;6129165;23;20571;-73
2023/02/11 00:59:28;;;;;;;0.00;0.00;;;;;;;8.72;91.05;102377.16;6133095;23;20005;-73
2023/02/11 01:01:55;;;;;;;0.00;0.00;;;;;;;8.56;90.47;102351.91;6133636;23;20009;-75
2023/02/11 01:04:21;;;;;;;0.00;0.00;;;;;;;8.60;89.84;102362.41;6155886;23;20036;-74
2023/02/11 01:06:50;;;;;;;0.00;0.00;;;;;;;8.72;89.95;102377.16;6134085;23;20039;-73
2023/02/11 01:09:16;;;;;;;0.00;0.00;;;;;;;8.64;89.29;102374.59;6132053;23;19998;-75
2023/02/11 01:11:44;;;;;;;0.05;0.05;;;;;;;8.53;89.80;102368.69;6132544;23;20041;-72
2023/02/11 01:14:09;;;;;;;0.00;0.00;;;;;;;8.51;89.62;102362.63;6160035;23;20020;-72
2023/02/11 01:16:35;;;;;;;0.00;0.00;;;;;;;8.54;89.83;102375.84;6154030;23;20300;-73
2023/02/11 01:19:03;;;;;;;0.00;0.00;;;;;;;8.66;89.49;102392.44;6159127;23;20016;-73
2023/02/11 01:21:28;;;;;;;0.00;0.00;;;;;;;8.53;89.50;102365.97;6130021;23;20537;-74
2023/02/11 01:24:03;;;;;;;0.00;0.00;;;;;;;8.49;89.77;102359.22;6085358;23;20067;-74
2023/02/11 01:26:36;;;;;;;0.10;0.10;;;;;;;8.63;89.20;102375.63;6156479;23;20001;-73
2023/02/11 01:29:02;;;;;;;0.00;0.00;;;;;;;8.47;89.18;102349.56;6134337;23;20012;-75
2023/02/11 01:31:31;;;;;;;0.00;0.00;;;;;;;8.50;89.36;102360.91;6136505;23;20005;-74
2023/02/11 01:33:57;;;;;;;0.00;0.00;;;;;;;8.70;89.18;102384.66;6132785;23;20016;-74
2023/02/11 01:36:25;;;;;;;0.00;0.00;;;;;;;8.54;88.96;102348.56;6109576;23;20001;-72
2023/02/11 01:38:59;;;;;;;0.00;0.00;;;;;;;8.69;88.88;102366.66;6133481;23;20002;-74
2023/02/11 01:41:34;;;;;;;0.10;0.10;;;;;;;8.61;88.61;102355.91;6161057;23;20029;-72
2023/02/11 01:44:32;;;;;;;0.00;0.00;;;;;;;8.74;88.63;102375.03;6110361;23;20013;-74
2023/02/11 01:46:58;;;;;;;0.00;0.00;;;;;;;8.74;88.75;102369.59;6135042;23;20093;-73
2023/02/11 01:49:47;;;;;;;0.00;0.00;;;;;;;8.67;88.22;102360.53;6132538;23;20084;-72
2023/02/11 01:52:27;;;;;;;0.00;0.00;;;;;;;8.70;88.25;102366.44;6164040;23;20025;-74
2023/02/11 01:57:51;;;;;;;0.00;0.00;;;;;;;8.69;87.87;102363.91;6196036;23;20031;-73
2023/02/11 02:00:55;;;;;;;0.00;0.00;;;;;;;8.49;87.69;102334.69;6178671;23;20009;-73
2023/02/11 02:03:32;;;;;;;0.00;0.00;;;;;;;8.40;87.56;102303.19;6196170;23;19993;-73
2023/02/11 02:06:41;;;;;;;;;;;;;;;;;;;;;
2023/02/11 02:09:27;;;;;;;0.00;0.00;;;;;;;8.74;86.88;102370.41;6195259;23;20032;-74
2023/02/11 02:12:00;;;;;;;0.00;0.00;;;;;;;8.76;86.46;102367.50;6165825;23;20036;-70
2023/02/11 02:14:46;;;;;;;0.00;0.00;;;;;;;8.63;86.54;102334.72;6161430;23;20649;-72
2023/02/11 02:17:41;;;;;;;;;;;;;;;;;;;;;
2023/02/11 02:20:38;;;;;;;0.00;0.00;;;;;;;8.56;86.29;102319.19;6191124;23;20008;-73
2023/02/11 02:23:11;;;;;;;0.00;0.00;;;;;;;8.65;86.11;102338.94;6189060;23;20005;-72
2023/02/11 02:26:27;;;;;;;0.00;0.00;;;;;;;8.58;86.24;102329.88;6165454;23;20340;-72
2023/02/11 02:29:29;;;;;;;0.00;0.00;;;;;;;8.47;85.75;102309.53;6165627;23;20005;-73
2023/02/11 02:32:46;;;;;;;0.00;0.00;;;;;;;8.68;86.09;102337.69;6163419;23;20000;-73
2023/02/11 02:35:28;;;;;;;0.00;0.00;;;;;;;8.67;85.80;102347.75;6160748;23;20005;-71
2023/02/11 02:38:12;;;;;;;0.10;0.10;;;;;;;8.58;86.15;102331.78;6164246;23;20096;-74
2023/02/11 02:40:55;;;;;;;0.00;0.00;;;;;;;8.69;86.32;102344.81;6165786;23;20005;-75
2023/02/11 02:43:28;;;;;;;0.00;0.00;;;;;;;8.69;86.27;102344.81;6166474;23;20004;-76
2023/02/11 02:46:12;;;;;;;0.00;0.00;;;;;;;8.55;86.49;102316.66;6192615;23;20003;-74
2023/02/11 02:48:48;;;;;;;0.00;0.00;;;;;;;8.55;86.01;102314.78;6164949;23;20083;-75
2023/02/11 02:51:34;;;;;;;0.00;0.00;;;;;;;8.68;86.26;102333.06;6166280;23;20041;-74
2023/02/11 02:54:30;;;;;;;0.00;0.00;;;;;;;8.56;85.99;102319.19;6164940;23;20016;-75
2023/02/11 02:57:08;;;;;;;0.00;0.00;;;;;;;8.66;86.28;102329.72;6187968;23;20008;-75
2023/02/11 02:59:37;;;;;;;0.00;0.00;;;;;;;8.65;86.33;102332.66;6168033;23;20013;-73
2023/02/11 03:02:16;;;;;;;0.00;0.00;;;;;;;8.55;86.21;102306.59;6164987;23;20070;-74
2023/02/11 03:04:57;;;;;;;0.00;0.00;;;;;;;8.68;85.79;102316.69;6193294;23;20033;-75
2023/02/11 03:07:38;;;;;;;0.00;0.00;;;;;;;8.60;86.01;102292.38;6164818;23;20064;-74
2023/02/11 03:10:12;;;;;;;0.00;0.00;;;;;;;8.51;86.15;102271.78;6192412;23;19997;-73
2023/02/11 03:12:51;;;;;;;0.00;0.00;;;;;;;8.61;86.44;102285.00;6165085;23;20004;-75
2023/02/11 03:15:32;;;;;;;0.00;0.00;;;;;;;8.48;86.44;102270.28;6166881;23;20147;-73
2023/02/11 03:18:00;;;;;;;0.00;0.00;;;;;;;8.25;86.16;102248.84;6164794;23;20013;-74
2023/02/11 03:20:27;;;;;;;0.00;0.00;;;;;;;8.44;86.67;102279.06;6168009;23;20054;-74
2023/02/11 03:23:22;;;;;;;0.00;0.00;;;;;;;8.59;86.43;102306.22;6140091;23;20009;-72
2023/02/11 03:25:56;;;;;;;0.00;0.00;;;;;;;8.46;86.57;102279.75;6192783;23;19989;-74
2023/02/11 03:28:40;;;;;;;;;;;;;;;8.59;86.36;102295.31;6167515;23;20004;-73
2023/02/11 03:31:59;;;;;;;0.00;0.00;;;;;;;8.56;86.73;102297.38;6161672;23;19935;-72
2023/02/11 03:34:47;;;;;;;0.00;0.00;;;;;;;8.59;86.41;102300.75;6188605;23;20404;-73
2023/02/11 03:37:47;;;;;;;;;;;;;;;;;;;;;
2023/02/11 03:40:19;;;;;;;0.00;0.00;;;;;;;8.52;86.31;102279.75;6190472;23;20052;-74
2023/02/11 03:43:37;;;;;;;0.00;0.00;;;;;;;8.61;86.28;102298.66;6191828;23;20009;-74
2023/02/11 03:46:06;;;;;;;0.00;0.00;;;;;;;8.48;85.82;102289.38;6127420;23;20005;-72
2023/02/11 03:49:01;;;;;;;;;;;;;;;;;;;;;
2023/02/11 03:51:36;;;;;;;0.05;0.05;;;;;;;8.52;86.05;102293.38;6192160;23;20044;-73
2023/02/11 03:54:15;;;;;;;0.00;0.00;;;;;;;8.46;85.70;102286.03;6141869;23;20032;-74
2023/02/11 03:57:01;;;;;;;0.00;0.00;;;;;;;8.63;85.14;102299.25;6189886;23;20005;-75
2023/02/11 03:59:30;;;;;;;0.00;0.00;;;;;;;8.50;85.15;102284.56;6167477;23;20527;-73
2023/02/11 04:01:58;;;;;;;0.00;0.00;;;;;;;8.65;84.71;102308.09;6189383;23;20077;-73
2023/02/11 04:04:24;;;;;;;0.00;0.00;;;;;;;8.63;84.90;102302.84;6164767;23;20000;-74
2023/02/11 04:06:50;;;;;;;0.00;0.00;;;;;;;8.50;84.69;102281.84;6189010;23;20015;-73
2023/02/11 04:09:18;;;;;;;0.00;0.00;;;;;;;8.60;85.10;102300.53;6192034;23;20001;-75
2023/02/11 04:11:43;;;;;;;0.00;0.00;;;;;;;8.57;84.82;102284.56;6191102;23;20416;-74
2023/02/11 04:14:17;;;;;;;0.00;0.00;;;;;;;8.58;84.84;102290.88;6163948;23;20008;-74
2023/02/11 04:16:52;;;;;;;0.00;0.00;;;;;;;8.54;84.37;102280.41;6168843;23;20097;-74
2023/02/11 04:19:18;;;;;;;0.00;0.00;;;;;;;8.71;84.90;102310.81;6163447;23;20005;-74
2023/02/11 04:21:46;;;;;;;0.00;0.00;;;;;;;8.57;84.59;102292.75;6164905;23;20013;-74
2023/02/11 04:24:14;;;;;;;0.00;0.00;;;;;;;8.51;84.76;102289.00;6159666;23;20025;-74
2023/02/11 04:26:40;;;;;;;0.00;0.00;;;;;;;8.66;83.79;102309.75;6191609;23;20112;-74
2023/02/11 04:29:08;;;;;;;0.00;0.00;;;;;;;8.62;84.67;102294.88;6164358;23;20421;-71
2023/02/11 04:31:33;;;;;;;0.00;0.00;;;;;;;8.47;84.53;102284.13;6194932;23;20009;-73
2023/02/11 04:33:59;;;;;;;0.00;0.00;;;;;;;8.67;84.31;102319.63;6205386;23;20020;-74
2023/02/11 04:36:24;;;;;;;0.00;0.00;;;;;;;8.55;83.96;102295.69;6194009;23;20009;-74
2023/02/11 04:38:50;;;;;;;0.00;0.00;;;;;;;8.60;83.52;102307.88;6168417;23;20016;-73
2023/02/11 04:41:15;;;;;;;0.00;0.00;;;;;;;8.53;83.37;102292.34;6138365;23;20013;-73
2023/02/11 04:43:41;;;;;;;0.00;0.00;;;;;;;8.58;83.41;102308.06;6193525;23;20005;-74
2023/02/11 04:46:06;;;;;;;0.00;0.00;;;;;;;8.67;83.25;102330.53;6164745;23;20032;-74
2023/02/11 04:48:33;;;;;;;0.00;0.00;;;;;;;8.73;84.00;102341.47;6161666;23;20016;-73
2023/02/11 04:51:00;;;;;;;0.00;0.00;;;;;;;8.74;83.32;102342.31;6166319;23;20016;-74
2023/02/11 04:53:28;;;;;;;0.00;0.00;;;;;;;8.71;83.32;102337.25;6163090;23;20077;-75
2023/02/11 04:55:54;;;;;;;0.00;0.00;;;;;;;8.67;83.34;102330.53;6193026;23;20013;-74
2023/02/11 04:58:19;;;;;;;0.00;0.00;;;;;;;8.56;83.37;102321.91;6163780;23;20672;-74
2023/02/11 05:01:02;;;;;;;0.00;0.00;;;;;;;8.68;84.01;102337.69;6190542;23;20032;-74
2023/02/11 05:03:27;;;;;;;0.00;0.00;;;;;;;8.63;83.98;102340.19;6189764;23;20619;-74
2023/02/11 05:05:58;;;;;;;0.00;0.00;;;;;;;8.52;84.38;102328.81;6134713;23;20013;-74
2023/02/11 05:08:24;;;;;;;0.00;0.00;;;;;;;8.56;84.63;102343.72;6184557;23;20029;-73
2023/02/11 05:10:52;;;;;;;0.00;0.00;;;;;;;8.48;84.87;102332.16;6155066;23;19993;-74
2023/02/11 05:13:20;;;;;;;0.00;0.00;;;;;;;8.46;85.05;102332.38;6190449;23;20012;-74
2023/02/11 05:15:45;;;;;;;0.00;0.00;;;;;;;8.47;85.47;102339.53;6138416;23;20091;-75
2023/02/11 05:18:13;;;;;;;0.00;0.00;;;;;;;8.38;85.98;102327.94;6163962;23;20059;-74
2023/02/11 05:20:42;;;;;;;0.00;0.00;;;;;;;8.48;86.27;102343.91;6162237;23;20008;-75
2023/02/11 05:23:33;;;;;;;0.10;0.10;;;;;;;8.21;86.98;102316.53;6165557;23;20001;-74
2023/02/11 05:25:58;;;;;;;0.00;0.00;;;;;;;8.40;87.25;102344.06;6187598;23;20001;-73
2023/02/11 05:28:24;;;;;;;0.00;0.00;;;;;;;8.38;86.84;102337.97;6161913;23;20012;-73
2023/02/11 05:30:49;;;;;;;0.00;0.00;;;;;;;8.39;86.89;102339.66;6162644;23;20462;-73
2023/02/11 05:33:14;;;;;;;0.00;0.00;;;;;;;8.30;87.46;102327.28;6190434;23;20004;-75
2023/02/11 05:35:48;;;;;;;0.10;0.10;;;;;;;8.32;87.12;102331.47;6192032;23;20008;-73
2023/02/11 05:38:23;;;;;;;;;;;;;;;;;;;;;
2023/02/11 05:41:14;;;;;;;0.00;0.00;;;;;;;8.34;87.01;102334.81;6188953;23;20380;-74
2023/02/11 05:43:48;;;;;;;0.00;0.00;;;;;;;8.27;87.17;102325.78;6191621;23;20053;-75
2023/02/11 05:46:24;;;;;;;;;;;;;;;;;;;;;
2023/02/11 05:48:59;;;;;;;0.00;0.00;;;;;;;8.21;88.20;102324.72;6189658;23;19912;-75
2023/02/11 05:51:25;;;;;;;0.00;0.00;;;;;;;8.27;88.16;102344.88;6166246;23;20031;-74
2023/02/11 05:53:57;;;;;;;0.05;0.05;;;;;;;8.26;88.22;102342.34;6187766;23;20068;-74
2023/02/11 05:56:23;;;;;;;0.00;0.00;;;;;;;8.24;88.52;102339.00;6117861;23;20484;-74
2023/02/11 05:58:48;;;;;;;0.00;0.00;;;;;;;8.03;88.83;102313.50;6188355;23;20009;-75
2023/02/11 06:01:14;;;;;;;0.00;0.00;;;;;;;8.17;88.99;102338.94;6163505;23;20005;-73
2023/02/11 06:03:39;;;;;;;0.00;0.00;;;;;;;8.09;88.99;102317.31;6187905;23;20108;-73
2023/02/11 06:06:11;;;;;;;0.00;0.00;;;;;;;8.03;89.10;102319.81;6163590;23;20056;-73
2023/02/11 06:08:45;;;;;;;0.00;0.00;;;;;;;8.16;89.02;102335.41;6160910;23;20002;-74
2023/02/11 06:11:23;;;;;;;0.00;0.00;;;;;;;8.14;89.36;102337.47;6164545;23;20009;-74
2023/02/11 06:13:50;;;;;;;0.00;0.00;;;;;;;8.19;89.58;102337.72;6163148;23;20041;-76
2023/02/11 06:16:15;;;;;;;0.00;0.00;;;;;;;8.24;89.54;102344.44;6118016;23;20009;-76
2023/02/11 06:19:43;;;;;;;0.00;0.00;;;;;;;8.18;89.60;102346.94;6167323;23;20001;-81
2023/02/11 06:22:17;;;;;;;0.00;0.00;;;;;;;7.99;90.65;102328.59;6157959;23;20001;-76
2023/02/11 06:24:58;;;;;;;0.00;0.00;;;;;;;7.92;91.01;102327.72;6141465;23;20009;-74
2023/02/11 06:27:24;;;;;;;0.00;0.00;;;;;;;7.95;91.32;102338.22;6160031;23;20076;-74
2023/02/11 06:29:51;;;;;;;0.00;0.00;;;;;;;8.07;91.06;102347.50;6154422;23;20373;-75
2023/02/11 06:32:28;;;;;;;0.00;0.00;;;;;;;8.05;91.71;102341.41;6192610;23;19992;-76
2023/02/11 06:35:29;;;;;;;;;;;;;;;;;;;;;
2023/02/11 06:38:57;;;;;;;;;;;;;;;;;;;;;
2023/02/11 06:42:22;;;;;;;;;;;;;;;;;;;;;
2023/02/11 06:45:08;;;;;;;;;;;;;;;;;;;;;
2023/02/11 06:50:55;;;;;;;0.00;0.00;;;;;;;7.91;91.32;102331.50;6032557;23;20070;-76
2023/02/11 06:53:30;;;;;;;;;;;;;;;;;;;;;
2023/02/11 06:56:33;;;;;;;;;;;;;;;;;;;;;
2023/02/11 06:59:00;;;;;;;0.10;0.10;;;;;;;8.00;91.20;102365.69;6187937;23;20476;-74
2023/02/11 07:05:33;;;;;;;;;;;;;;;;;;;;;
2023/02/11 07:08:26;;;;;;;0.00;0.00;;;;;;;8.07;91.85;102379.38;6114317;23;19998;-76
2023/02/11 07:11:56;;;;;;;0.00;0.00;;;;;;;8.00;91.44;102365.69;6105741;23;20361;-75
2023/02/11 07:14:42;;;;;;;;;;;;;;;;;;;;;
2023/02/11 07:17:58;;;;;;;;;;;;;;;;;;;;;
2023/02/11 07:21:03;;;;;;;;;;;;;;;;;;;;;
2023/02/11 07:26:57;;;;;;;;;;;;;;;8.19;91.33;102388.63;6141603;23;20036;-77
2023/02/11 07:30:24;;;;;;;;;;;;;;;;;;;;;
2023/02/11 07:32:57;;;;;;;;;;;;;;;;;;;;;
2023/02/11 07:39:06;;;;;;;;;;;;;;;;;;;;;
2023/02/11 07:41:47;;;;;;;0.03;0.03;;;;;;;8.01;91.14;102386.44;6176427;23;20040;-77
2023/02/11 07:44:16;;;;;;;0.00;0.00;;;;;;;7.88;91.31;102365.41;6145288;23;20017;-79
2023/02/11 07:46:48;;;;;;;0.00;0.00;;;;;;;7.97;91.14;102368.81;6170564;23;20144;-80
2023/02/11 07:49:35;;;;;;;;;;;;;;;;;;;;;
2023/02/11 07:55:34;;;;;;;;;;;;;;;;;;;;;
2023/02/11 08:02:09;;;;;;;;;;;;;;;;;;;;;
2023/02/11 08:04:41;;;;;;;0.00;0.00;;;;;;;8.20;90.01;102374.81;5946466;23;20052;-75
2023/02/11 08:07:09;;;;;;;0.00;0.00;;;;;;;8.47;89.92;102407.69;6094593;23;20029;-76
2023/02/11 08:09:36;;;;;;;0.00;0.00;;;;;;;8.59;89.60;102420.75;6087129;23;20009;-78
2023/02/11 08:12:02;;;;;;;0.00;0.00;;;;;;;8.51;89.23;102406.25;6161286;23;20005;-78
2023/02/11 08:14:28;;;;;;;0.00;0.00;;;;;;;8.59;89.70;102420.75;6187927;23;20015;-79
2023/02/11 08:16:56;;;;;;;0.00;0.00;;;;;;;8.52;89.43;102405.16;6110924;23;20009;-78
2023/02/11 08:19:21;;;;;;;0.00;0.00;;;;;;;8.62;89.06;102412.97;6135570;23;20040;-79
2023/02/11 08:21:47;;;;;;;0.00;0.00;;;;;;;8.74;89.59;102435.06;6166664;23;20013;-75
2023/02/11 08:24:35;;;;;;;0.00;0.00;;;;;;;8.73;88.55;102427.91;6178718;23;20464;-75
2023/02/11 08:27:00;;;;;;;0.00;0.00;;;;;;;8.63;88.70;102411.09;6160325;23;20009;-76
2023/02/11 08:29:26;;;;;;;0.00;0.00;;;;;;;8.75;89.14;102428.56;6180729;23;20012;-75
2023/02/11 08:31:51;;;;;;;0.00;0.00;;;;;;;8.80;89.07;102423.31;6161165;23;20436;-75
2023/02/11 08:34:17;;;;;;;0.00;0.00;;;;;;;8.78;88.67;102430.88;6130993;23;20013;-76
2023/02/11 08:36:45;;;;;;;0.00;0.00;;;;;;;8.83;88.59;102438.44;6160087;23;20630;-76
2023/02/11 08:39:21;;;;;;;0.00;0.00;;;;;;;8.82;88.74;102425.84;6180977;23;20016;-75
2023/02/11 08:42:02;;;;;;;0.00;0.00;;;;;;;8.65;88.42;102404.38;6188756;23;20036;-81
2023/02/11 08:44:39;;;;;;;0.05;0.05;;;;;;;8.82;88.75;102432.16;6163231;23;20147;-81
2023/02/11 08:47:04;;;;;;;0.00;0.00;;;;;;;8.61;89.48;102402.28;6119684;23;20582;-78
2023/02/11 08:49:40;;;;;;;0.00;0.00;;;;;;;8.76;89.40;102443.03;6143716;23;20009;-77
2023/02/11 08:52:43;;;;;;;;;;;;;;;;;;;;;
2023/02/11 08:55:18;;;;;;;0.00;0.00;;;;;;;8.70;90.22;102439.22;6170274;23;20040;-78
2023/02/11 08:58:14;;;;;;;0.00;0.00;;;;;;;8.73;90.07;102452.44;6192653;23;19997;-79
2023/02/11 09:00:50;;;;;;;;;;;;;;;;;;;;;
2023/02/11 09:03:23;;;;;;;0.00;0.00;;;;;;;8.72;90.33;102456.25;6073863;23;20030;-76
2023/02/11 09:05:52;;;;;;;0.00;0.00;;;;;;;8.75;90.55;102458.56;6168674;23;20012;-78
2023/02/11 09:12:00;;;;;;;;;;;;;;;;;;;;;
2023/02/11 09:31:19;;;;;;;0.00;0.00;;;;;;;8.72;90.83;102404.41;6213918;23;20020;-76
2023/02/11 09:33:55;;;;;;;0.00;0.00;;;;;;;8.78;90.43;102414.50;6215604;23;20308;-76
2023/02/11 09:36:41;;;;;;;0.00;0.00;;;;;;;8.97;90.53;102429.25;6213734;23;20039;-76
2023/02/11 09:39:35;;;;;;;0.00;0.00;;;;;;;8.76;90.53;102383.88;6215907;22;20005;-77
2023/02/11 09:42:48;;;;;;;;;;;;;;;;;;;;;
2023/02/11 09:45:34;;;;;;;0.00;0.00;;;;;;;9.35;89.62;102431.41;6250629;23;20028;-74
2023/02/11 09:48:38;;;;;;;0.00;0.00;;;;;;;9.50;89.26;102433.94;6225657;23;20008;-80
2023/02/11 09:51:05;;;;;;;0.00;0.00;;;;;;;9.60;87.99;102428.88;6224327;23;20372;-77
2023/02/11 09:53:44;;;;;;;0.00;0.00;;;;;;;9.72;87.83;102426.34;6195750;23;20004;-75
2023/02/11 09:56:14;;;;;;;0.00;0.00;;;;;;;9.57;87.10;102391.06;6223042;23;20004;-78
2023/02/11 09:59:22;;;;;;;;;;;;;;;;;;;;;
2023/02/11 10:02:43;;;;;;;;;;;;;;;;;;;;;
2023/02/11 10:06:03;;;;;;;0.05;0.05;;;;;;;9.70;86.23;102441.31;6252817;23;20031;-78
2023/02/11 10:08:45;;;;;;;0.00;0.00;;;;;;;9.79;86.93;102453.69;6192124;23;20090;-78
2023/02/11 10:11:30;;;;;;;;;;;;;;;;;;;;;
2023/02/11 10:15:01;;;;;;;;;;;;;;;;;;;;;
2023/02/11 10:17:49;;;;;;;0.00;0.00;;;;;;;9.86;86.23;102465.44;6247220;23;20016;-76
2023/02/11 10:20:33;;;;;;;0.00;0.00;;;;;;;10.11;85.90;102473.81;6223104;23;20012;-75
2023/02/11 10:23:06;;;;;;;0.00;0.00;;;;;;;10.30;85.96;102461.16;6225873;23;20004;-74
2023/02/11 10:25:59;;;;;;;0.00;0.00;;;;;;;10.67;85.54;102465.28;6221909;23;20004;-77
2023/02/11 10:28:59;;;;;;;0.00;0.00;;;;;;;11.19;82.88;102466.06;6200251;23;20008;-76
2023/02/11 10:31:32;;;;;;;0.00;0.00;;;;;;;12.13;81.03;102457.09;6189979;23;20020;-77
2023/02/11 10:34:03;;;;;;;0.00;0.00;;;;;;;12.54;77.09;102463.81;6188309;23;19999;-76
2023/02/11 10:36:35;;;;;;;0.00;0.00;;;;;;;12.32;75.24;102452.47;6191451;23;20103;-78
2023/02/11 10:39:21;;;;;;;0.00;0.00;;;;;;;11.97;75.68;102447.56;6187664;23;19997;-77
2023/02/11 10:42:01;;;;;;;0.00;0.00;;;;;;;11.94;76.15;102481.75;6193285;23;20012;-77
2023/02/11 10:44:42;;;;;;;0.00;0.00;;;;;;;11.78;76.59;102452.13;6169414;23;20004;-75
2023/02/11 10:47:18;;;;;;;0.00;0.00;;;;;;;11.87;76.41;102475.44;6219359;23;20005;-74
2023/02/11 10:49:49;;;;;;;0.00;0.00;;;;;;;12.04;76.24;102453.81;6195756;23;20027;-78
2023/02/11 10:52:50;;;;;;;;;;;;;;;;;;;;;
2023/02/11 10:58:49;;;;;;;0.00;0.00;;;;;;;12.15;74.27;102441.25;6200254;23;20075;-76
2023/02/11 11:04:45;;;;;;;0.00;0.00;;;;;;;12.11;74.03;102429.09;6085160;23;20021;-76
2023/02/11 11:07:31;;;;;;;0.00;0.00;;;;;;;12.23;74.16;102446.44;6095964;23;20073;-76
2023/02/11 11:10:46;;;;;;;;;;;;;;;;;;;;;
2023/02/11 11:13:31;;;;;;;0.00;0.00;;;;;;;11.96;74.24;102463.19;6189650;23;20032;-75
2023/02/11 11:16:17;;;;;;;0.00;0.00;;;;;;;12.07;74.06;102474.47;6193654;23;20035;-75
2023/02/11 11:21:59;;;;;;;0.00;0.00;;;;;;;12.46;73.86;102472.38;6135518;23;20017;-75
2023/02/11 11:25:00;;;;;;;0.00;0.00;;;;;;;12.54;72.77;102436.38;6184940;23;20004;-77
2023/02/11 11:27:55;;;;;;;0.00;0.00;;;;;;;12.46;72.04;102428.47;6023947;23;20111;-77
2023/02/11 11:30:22;;;;;;;;;;;;;;;12.79;72.06;102471.13;6196837;23;19997;-78
2023/02/11 11:33:01;;;;;;;;;;;;;;;;;;;;;
2023/02/11 11:35:32;;;;;;;0.00;0.00;;;;;;;13.28;68.91;102469.19;6221413;23;20036;-74
2023/02/11 11:38:11;;;;;;;0.00;0.00;;;;;;;13.56;69.09;102456.72;6218837;23;20036;-75
2023/02/11 11:40:50;;;;;;;0.00;0.00;;;;;;;14.27;67.80;102473.25;6220072;23;19992;-78
2023/02/11 11:43:29;;;;;;;0.00;0.00;;;;;;;14.56;66.14;102463.16;6217744;23;20001;-74
2023/02/11 11:46:05;;;;;;;0.00;0.00;;;;;;;14.68;65.70;102454.06;6222189;23;20079;-75
2023/02/11 11:48:38;;;;;;;0.00;0.00;;;;;;;14.56;64.49;102460.41;6225368;23;20035;-75
2023/02/11 11:51:08;;;;;;;0.03;0.03;;;;;;;14.36;64.30;102454.47;6231757;23;20423;-75
2023/02/11 11:53:50;;;;;;;0.00;0.00;;;;;;;14.08;64.34;102456.03;6216668;23;20013;-75
2023/02/11 11:56:25;;;;;;;0.00;0.00;;;;;;;13.79;64.83;102453.16;6218073;23;20032;-75
2023/02/11 11:58:53;;;;;;;0.00;0.00;;;;;;;13.29;65.33;102437.88;6215201;23;20035;-75
2023/02/11 12:01:54;;;;;;;0.00;0.00;;;;;;;12.98;66.99;102445.31;6219399;23;20067;-75
2023/02/11 12:04:44;;;;;;;0.10;0.10;;;;;;;13.00;67.95;102440.41;6164031;23;20016;-76
2023/02/11 12:07:12;;;;;;;0.00;0.00;;;;;;;12.95;67.61;102426.53;6220625;23;20088;-78
2023/02/11 12:09:40;;;;;;;0.00;0.00;;;;;;;13.25;67.01;102443.00;6219749;23;19992;-75
2023/02/11 12:12:31;;;;;;;0.00;0.00;;;;;;;13.51;66.08;102438.19;6217067;23;20403;-76
2023/02/11 12:15:24;;;;;;;0.10;0.10;;;;;;;13.33;65.47;102439.09;6224449;23;20004;-76
2023/02/11 12:18:21;;;;;;;0.00;0.00;;;;;;;13.21;64.65;102435.47;6224698;23;20001;-76
2023/02/11 12:21:38;;;;;;;0.00;0.00;;;;;;;13.02;65.47;102435.53;6100587;23;20013;-76
2023/02/11 12:24:20;;;;;;;;;;;;;;;;;;;;;
2023/02/11 12:26:54;;;;;;;0.00;0.00;;;;;;;12.64;67.86;102425.69;6221736;23;20146;-75
2023/02/11 12:29:31;;;;;;;0.00;0.00;;;;;;;12.52;68.29;102424.81;6217291;23;19997;-77
2023/02/11 12:32:18;;;;;;;0.00;0.00;;;;;;;12.54;69.09;102419.91;6226186;23;20668;-76
2023/02/11 12:34:55;;;;;;;0.00;0.00;;;;;;;12.69;68.61;102420.38;6222712;23;20007;-77
2023/02/11 12:37:26;;;;;;;0.00;0.00;;;;;;;12.64;68.47;102420.19;6223056;23;20014;-77
2023/02/11 12:40:10;;;;;;;0.00;0.00;;;;;;;12.66;68.31;102415.34;6247907;23;20026;-75
2023/02/11 12:45:52;;;;;;;0.00;0.00;;;;;;;12.45;68.91;102396.59;6251949;23;20091;-77
2023/02/11 12:48:39;;;;;;;0.00;0.00;;;;;;;12.55;68.83;102416.09;6218808;23;20004;-77
2023/02/11 12:51:19;;;;;;;0.00;0.00;;;;;;;12.45;68.57;102427.63;6224502;23;20004;-77
2023/02/11 12:54:09;;;;;;;0.00;0.00;;;;;;;12.57;68.69;102420.31;6219910;23;20004;-76
2023/02/11 12:56:49;;;;;;;0.00;0.00;;;;;;;12.71;68.30;102415.47;6221836;23;20019;-73
2023/02/11 12:59:38;;;;;;;0.00;0.00;;;;;;;12.99;68.19;102411.28;6222972;23;20005;-76
2023/02/11 13:02:42;;;;;;;0.00;0.00;;;;;;;13.23;67.21;102411.38;6220854;23;19992;-76
2023/02/11 13:05:22;;;;;;;0.00;0.00;;;;;;;13.06;66.34;102395.53;6204876;23;20027;-75
2023/02/11 13:07:54;;;;;;;0.00;0.00;;;;;;;13.05;66.19;102399.38;6222034;23;20006;-76
2023/02/11 13:10:37;;;;;;;0.00;0.00;;;;;;;13.35;66.57;102419.66;6249165;23;20075;-75
2023/02/11 13:13:15;;;;;;;0.00;0.00;;;;;;;13.27;65.06;102391.41;6223493;23;20054;-76
2023/02/11 13:16:08;;;;;;;0.00;0.00;;;;;;;13.35;65.20;102404.00;6222000;23;20007;-74
2023/02/11 13:19:03;;;;;;;0.00;0.00;;;;;;;13.31;64.80;102391.78;6222547;23;20078;-76
2023/02/11 13:21:57;;;;;;;0.00;0.00;;;;;;;13.28;64.20;102408.72;6249683;23;20008;-75
2023/02/11 13:24:37;;;;;;;0.00;0.00;;;;;;;12.84;63.38;102397.16;6185743;23;20691;-75
2023/02/11 13:27:07;;;;;;;0.00;0.00;;;;;;;12.67;64.69;102402.44;6250451;23;20004;-74
2023/02/11 13:29:49;;;;;;;0.00;0.00;;;;;;;12.55;64.84;102403.22;6219914;23;20763;-75
2023/02/11 13:32:15;;;;;;;0.00;0.00;;;;;;;12.66;65.49;102395.28;6249098;22;20015;-75
2023/02/11 13:34:40;;;;;;;0.00;0.00;;;;;;;12.82;65.80;102394.63;6220350;23;20011;-74
2023/02/11 13:37:21;;;;;;;0.00;0.00;;;;;;;12.91;65.56;102397.91;6224320;23;20082;-76
2023/02/11 13:40:20;;;;;;;0.00;0.00;;;;;;;13.09;65.54;102400.56;6221591;23;20064;-75
2023/02/11 13:43:11;;;;;;;;;;;;;;;;;;;;;
2023/02/11 13:45:56;;;;;;;;;;;;;;;;;;;;;
2023/02/11 13:48:25;;;;;;;0.00;0.00;;;;;;;14.02;63.25;102380.81;6247327;23;20027;-76
2023/02/11 13:50:55;;;;;;;0.00;0.00;;;;;;;14.34;62.90;102380.41;6249606;23;20311;-77
2023/02/11 13:53:27;;;;;;;0.00;0.00;;;;;;;14.47;61.94;102371.84;6221115;23;20004;-77
2023/02/11 13:56:29;;;;;;;0.00;0.00;;;;;;;14.75;60.82;102383.97;6225240;23;20015;-77
2023/02/11 13:58:59;;;;;;;0.00;0.00;;;;;;;15.02;60.24;102375.09;6173647;23;20016;-78
2023/02/11 14:18:50;;;;;;;0.00;0.00;;;;;;;13.90;59.42;102382.72;6157388;23;20017;-78
2023/02/11 14:21:28;;;;;;;0.00;0.00;;;;;;;13.52;59.30;102381.31;6138617;23;20104;-76
2023/02/11 14:24:39;;;;;;;0.00;0.00;;;;;;;13.21;59.97;102380.53;6133204;23;20005;-77
2023/02/11 14:27:19;;;;;;;0.00;0.00;;;;;;;13.27;60.67;102368.59;6135406;23;20352;-76
2023/02/11 14:29:50;;;;;;;0.00;0.00;;;;;;;13.29;60.91;102374.69;6134329;23;20001;-76
2023/02/11 14:32:22;;;;;;;0.00;0.00;;;;;;;13.30;61.39;102373.59;6170599;23;20020;-74